createdAt,value
2017-08-07T00:00:57.055Z,46.17
2017-08-07T00:03:24.619Z,46.18
2017-08-07T00:05:52.132Z,46.40
2017-08-07T00:08:19.689Z,46.31
2017-08-07T00:10:47.225Z,46.51
2017-08-07T00:13:14.783Z,46.55
2017-08-07T00:15:42.300Z,46.44
2017-08-07T00:18:09.816Z,46.37
2017-08-07T00:20:37.370Z,46.46
2017-08-07T00:23:04.900Z,46.48
2017-08-07T00:25:32.481Z,47.04
2017-08-07T00:28:00.000Z,47.55
2017-08-07T00:30:27.568Z,48.00
2017-08-07T00:32:55.094Z,48.38
2017-08-07T00:35:22.635Z,48.28
2017-08-07T00:37:50.154Z,47.92
2017-08-07T00:40:17.709Z,47.87
2017-08-07T00:42:45.238Z,47.90
2017-08-07T00:45:12.798Z,47.90
2017-08-07T00:47:40.358Z,48.03
2017-08-07T00:50:07.913Z,47.99
2017-08-07T00:52:35.432Z,48.27
2017-08-07T00:55:02.979Z,48.11
2017-08-07T00:57:30.540Z,48.20
2017-08-07T00:59:58.076Z,48.25
2017-08-07T01:02:25.597Z,48.22
2017-08-07T01:04:53.163Z,48.14
2017-08-07T01:07:20.681Z,48.08
2017-08-07T01:09:48.202Z,48.33
2017-08-07T01:12:15.776Z,48.03
2017-08-07T01:14:43.295Z,47.96
2017-08-07T01:17:10.844Z,48.17
2017-08-07T01:19:38.435Z,48.11
2017-08-07T01:22:06.015Z,48.41
2017-08-07T01:24:33.573Z,49.15
2017-08-07T01:27:01.124Z,48.83
2017-08-07T01:29:28.640Z,48.83
2017-08-07T01:31:56.194Z,48.98
2017-08-07T01:34:23.716Z,48.97
2017-08-07T01:36:51.266Z,49.16
2017-08-07T01:39:18.789Z,49.30
2017-08-07T01:41:46.354Z,49.17
2017-08-07T01:44:13.915Z,49.22
2017-08-07T01:46:41.482Z,48.98
2017-08-07T01:49:09.039Z,49.50
2017-08-07T01:51:36.595Z,49.63
2017-08-07T01:54:04.133Z,49.81
2017-08-07T01:56:31.700Z,49.75
2017-08-07T01:58:59.275Z,49.92
2017-08-07T02:01:26.803Z,50.27
2017-08-07T02:03:54.355Z,50.63
2017-08-07T02:06:21.874Z,50.70
2017-08-07T02:08:49.438Z,50.82
2017-08-07T02:11:16.950Z,50.63
2017-08-07T02:13:44.513Z,50.58
2017-08-07T02:16:12.063Z,50.40
2017-08-07T02:18:39.620Z,50.50
2017-08-07T02:21:07.144Z,50.62
2017-08-07T02:23:34.717Z,50.71
2017-08-07T02:26:02.253Z,50.81
2017-08-07T02:28:29.914Z,50.80
2017-08-07T02:30:57.445Z,50.91
2017-08-07T02:33:25.009Z,51.09
2017-08-07T02:35:52.649Z,50.68
2017-08-07T02:38:20.194Z,50.69
2017-08-07T02:40:47.742Z,50.75
2017-08-07T02:43:15.306Z,50.74
2017-08-07T02:45:42.834Z,50.70
2017-08-07T02:48:10.405Z,50.94
2017-08-07T02:50:37.922Z,50.93
2017-08-07T02:53:05.440Z,51.09
2017-08-07T02:55:32.991Z,51.72
2017-08-07T02:58:00.518Z,51.68
2017-08-07T03:00:28.105Z,51.62
2017-08-07T03:02:55.631Z,51.74
2017-08-07T03:05:23.190Z,51.53
2017-08-07T03:07:50.720Z,51.79
2017-08-07T03:10:18.537Z,52.41
2017-08-07T03:12:46.056Z,52.33
2017-08-07T03:15:13.607Z,52.76
2017-08-07T03:17:41.126Z,52.41
2017-08-07T03:20:08.680Z,52.94
2017-08-07T03:22:36.213Z,53.05
2017-08-07T03:25:03.869Z,52.93
2017-08-07T03:27:31.401Z,53.09
2017-08-07T03:29:58.989Z,53.42
2017-08-07T03:32:26.518Z,53.26
2017-08-07T03:34:54.070Z,53.43
2017-08-07T03:37:21.585Z,53.62
2017-08-07T03:39:49.140Z,53.86
2017-08-07T03:42:16.659Z,53.63
2017-08-07T03:44:44.222Z,53.49
2017-08-07T03:47:11.885Z,53.57
2017-08-07T03:49:39.401Z,53.57
2017-08-07T03:52:06.962Z,53.83
2017-08-07T03:54:34.510Z,54.04
2017-08-07T03:57:02.060Z,53.87
2017-08-07T03:59:29.582Z,54.04
2017-08-07T04:01:57.139Z,53.96
2017-08-07T04:04:24.658Z,53.92
2017-08-07T04:06:52.217Z,53.44
2017-08-07T04:09:19.750Z,53.36
2017-08-07T04:11:47.309Z,52.90
2017-08-07T04:14:14.844Z,52.85
2017-08-07T04:16:42.503Z,52.61
2017-08-07T04:19:10.030Z,52.64
2017-08-07T04:21:37.606Z,52.73
2017-08-07T04:24:05.166Z,52.95
2017-08-07T04:26:32.689Z,52.71
2017-08-07T04:29:00.254Z,53.19
2017-08-07T04:31:27.809Z,53.11
2017-08-07T04:33:55.393Z,53.38
2017-08-07T04:36:22.922Z,52.90
2017-08-07T04:38:50.482Z,52.67
2017-08-07T04:41:18.154Z,52.66
2017-08-07T04:43:45.811Z,53.29
2017-08-07T04:46:13.323Z,53.48
2017-08-07T04:48:40.873Z,52.89
2017-08-07T04:51:08.399Z,53.02
2017-08-07T04:53:35.955Z,52.98
2017-08-07T04:56:03.514Z,54.13
2017-08-07T04:58:31.081Z,55.62
2017-08-07T05:00:58.607Z,55.51
2017-08-07T05:03:26.185Z,55.02
2017-08-07T05:05:53.714Z,54.47
2017-08-07T05:08:21.268Z,54.74
2017-08-07T05:10:48.788Z,54.49
2017-08-07T05:13:16.353Z,54.20
2017-08-07T05:15:43.869Z,54.55
2017-08-07T05:18:11.440Z,54.60
2017-08-07T05:20:39.003Z,54.67
2017-08-07T05:23:06.532Z,54.64
2017-08-07T05:25:34.120Z,54.49
2017-08-07T05:28:01.653Z,54.24
2017-08-07T05:30:29.219Z,54.44
2017-08-07T05:32:56.737Z,54.12
2017-08-07T05:35:24.282Z,54.18
2017-08-07T05:37:51.805Z,54.28
2017-08-07T05:40:19.373Z,54.08
2017-08-07T05:42:46.889Z,54.13
2017-08-07T05:45:14.450Z,54.37
2017-08-07T05:47:41.970Z,54.21
2017-08-07T05:50:09.595Z,54.14
2017-08-07T05:52:37.148Z,54.31
2017-08-07T05:55:04.690Z,54.19
2017-08-07T05:57:32.214Z,54.09
2017-08-07T05:59:59.764Z,54.18
2017-08-07T06:02:27.290Z,54.09
2017-08-07T06:04:54.878Z,54.07
2017-08-07T06:07:22.391Z,54.21
2017-08-07T06:09:49.910Z,54.22
2017-08-07T06:12:17.454Z,54.47
2017-08-07T06:14:45.008Z,54.18
2017-08-07T06:17:12.562Z,54.26
2017-08-07T06:19:40.078Z,54.28
2017-08-07T06:22:07.621Z,54.16
2017-08-07T06:24:35.156Z,54.11
2017-08-07T06:27:02.831Z,54.14
2017-08-07T06:29:32.092Z,54.05
2017-08-07T06:32:01.119Z,54.09
2017-08-07T06:34:30.160Z,54.16
2017-08-07T06:36:59.227Z,54.08
2017-08-07T06:39:27.658Z,54.06
2017-08-07T06:41:55.948Z,54.06
2017-08-07T06:44:24.789Z,54.11
2017-08-07T06:46:52.390Z,54.18
2017-08-07T06:49:19.910Z,54.04
2017-08-07T06:51:47.463Z,53.94
2017-08-07T06:54:14.981Z,54.02
2017-08-07T06:56:42.537Z,54.05
2017-08-07T06:59:10.059Z,54.13
2017-08-07T07:01:37.573Z,54.13
2017-08-07T07:04:05.116Z,54.29
2017-08-07T07:06:32.637Z,54.20
2017-08-07T07:09:00.191Z,54.02
2017-08-07T07:11:27.792Z,53.96
2017-08-07T07:13:55.345Z,54.11
2017-08-07T07:16:22.857Z,53.99
2017-08-07T07:18:50.417Z,53.94
2017-08-07T07:21:18.028Z,54.05
2017-08-07T07:23:45.584Z,53.94
2017-08-07T07:26:13.097Z,53.93
2017-08-07T07:28:40.651Z,53.98
2017-08-07T07:31:08.164Z,54.03
2017-08-07T07:33:35.709Z,54.10
2017-08-07T07:36:03.230Z,53.92
2017-08-07T07:38:30.797Z,54.08
2017-08-07T07:40:58.316Z,53.98
2017-08-07T07:43:25.861Z,53.82
2017-08-07T07:45:53.376Z,53.96
2017-08-07T07:48:20.938Z,53.95
2017-08-07T07:50:48.481Z,53.97
2017-08-07T07:53:15.999Z,53.95
2017-08-07T07:55:43.549Z,53.81
2017-08-07T07:58:11.066Z,53.85
2017-08-07T08:00:38.629Z,53.78
2017-08-07T08:03:06.424Z,53.84
2017-08-07T08:05:35.094Z,54.00
2017-08-07T08:08:03.303Z,53.87
2017-08-07T08:10:31.161Z,53.90
2017-08-07T08:12:58.775Z,53.91
2017-08-07T08:15:27.269Z,53.92
2017-08-07T08:17:56.228Z,54.01
2017-08-07T08:20:23.955Z,53.85
2017-08-07T08:22:51.746Z,53.84
2017-08-07T08:25:19.817Z,53.80
2017-08-07T08:27:47.855Z,53.89
2017-08-07T08:30:15.657Z,53.89
2017-08-07T08:32:43.189Z,53.90
2017-08-07T08:35:10.746Z,53.88
2017-08-07T08:37:38.265Z,53.91
2017-08-07T08:40:05.881Z,53.97
2017-08-07T08:42:33.429Z,53.92
2017-08-07T08:45:00.945Z,53.85
2017-08-07T08:47:28.554Z,53.90
2017-08-07T08:49:56.068Z,53.91
2017-08-07T08:52:23.629Z,54.04
2017-08-07T08:54:51.152Z,54.06
2017-08-07T08:57:18.734Z,54.01
2017-08-07T08:59:46.348Z,53.95
2017-08-07T09:02:13.866Z,53.98
2017-08-07T09:04:41.427Z,53.97
2017-08-07T09:07:08.954Z,53.88
2017-08-07T09:09:36.508Z,54.01
2017-08-07T09:12:04.043Z,53.88
2017-08-07T09:14:31.603Z,53.89
2017-08-07T09:16:59.122Z,53.96
2017-08-07T09:19:26.676Z,54.00
2017-08-07T09:21:54.202Z,54.02
2017-08-07T09:24:21.778Z,54.14
2017-08-07T09:26:49.300Z,53.99
2017-08-07T09:29:16.837Z,53.99
2017-08-07T09:31:44.391Z,54.00
2017-08-07T09:34:11.904Z,53.90
2017-08-07T09:36:39.479Z,53.87
2017-08-07T09:39:07.002Z,54.02
2017-08-07T09:41:34.546Z,53.92
2017-08-07T09:44:02.062Z,54.01
2017-08-07T09:46:29.613Z,54.00
2017-08-07T09:48:57.146Z,54.06
2017-08-07T09:51:24.698Z,54.07
2017-08-07T09:53:52.247Z,54.10
2017-08-07T09:56:19.798Z,54.06
2017-08-07T09:58:47.314Z,54.06
2017-08-07T10:01:14.911Z,54.07
2017-08-07T10:03:42.434Z,54.20
2017-08-07T10:06:09.980Z,54.10
2017-08-07T10:08:37.498Z,54.10
2017-08-07T10:11:05.054Z,54.17
2017-08-07T10:13:32.580Z,54.09
2017-08-07T10:16:00.135Z,53.95
2017-08-07T10:18:27.657Z,53.93
2017-08-07T10:20:55.194Z,53.93
2017-08-07T10:23:22.736Z,53.93
2017-08-07T10:25:50.262Z,53.93
2017-08-07T10:28:17.805Z,53.95
2017-08-07T10:30:45.339Z,53.87
2017-08-07T10:33:12.888Z,53.82
2017-08-07T10:35:40.405Z,53.88
2017-08-07T10:38:07.954Z,53.89
2017-08-07T10:40:35.480Z,53.85
2017-08-07T10:43:03.032Z,53.93
2017-08-07T10:45:30.559Z,53.73
2017-08-07T10:47:58.135Z,53.67
2017-08-07T10:50:25.651Z,53.79
2017-08-07T10:52:53.195Z,53.86
2017-08-07T10:55:20.815Z,53.80
2017-08-07T10:57:48.380Z,53.90
2017-08-07T11:00:15.903Z,53.74
2017-08-07T11:02:43.483Z,53.86
2017-08-07T11:05:11.017Z,53.63
2017-08-07T11:07:38.537Z,53.75
2017-08-07T11:10:06.080Z,53.83
2017-08-07T11:12:33.599Z,53.58
2017-08-07T11:15:01.165Z,53.69
2017-08-07T11:17:28.682Z,53.77
2017-08-07T11:19:56.313Z,53.72
2017-08-07T11:22:23.835Z,53.57
2017-08-07T11:24:51.532Z,53.64
2017-08-07T11:27:19.060Z,53.63
2017-08-07T11:29:46.618Z,53.53
2017-08-07T11:32:14.131Z,53.57
2017-08-07T11:34:41.679Z,53.45
2017-08-07T11:37:09.190Z,53.42
2017-08-07T11:39:36.801Z,53.51
2017-08-07T11:42:04.320Z,53.61
2017-08-07T11:44:31.841Z,53.69
2017-08-07T11:46:59.391Z,53.53
2017-08-07T11:49:27.026Z,53.57
2017-08-07T11:51:54.588Z,53.67
2017-08-07T11:54:22.107Z,53.51
2017-08-07T11:56:49.709Z,53.38
2017-08-07T11:59:17.270Z,53.45
2017-08-07T12:01:44.828Z,53.40
2017-08-07T12:04:12.359Z,53.52
2017-08-07T12:06:39.909Z,53.64
2017-08-07T12:09:07.438Z,53.23
2017-08-07T12:11:34.986Z,53.31
2017-08-07T12:14:03.816Z,53.51
2017-08-07T12:16:31.712Z,53.49
2017-08-07T12:19:00.369Z,53.50
2017-08-07T12:21:28.897Z,53.39
2017-08-07T12:23:57.390Z,53.41
2017-08-07T12:26:26.528Z,53.38
2017-08-07T12:28:54.638Z,53.35
2017-08-07T12:31:23.366Z,53.25
2017-08-07T12:33:51.719Z,53.35
2017-08-07T12:36:19.779Z,53.34
2017-08-07T12:38:47.354Z,53.35
2017-08-07T12:41:14.875Z,53.40
2017-08-07T12:43:42.430Z,53.48
2017-08-07T12:46:09.954Z,53.28
2017-08-07T12:48:37.504Z,53.54
2017-08-07T12:51:05.019Z,53.38
2017-08-07T12:53:32.584Z,53.39
2017-08-07T12:56:00.107Z,53.42
2017-08-07T12:58:27.660Z,53.29
2017-08-07T13:00:55.183Z,53.44
2017-08-07T13:03:22.731Z,53.40
2017-08-07T13:05:50.247Z,53.38
2017-08-07T13:08:17.802Z,53.41
2017-08-07T13:10:45.317Z,53.29
2017-08-07T13:13:12.876Z,53.27
2017-08-07T13:15:40.397Z,53.39
2017-08-07T13:18:07.955Z,53.31
2017-08-07T13:20:35.478Z,53.30
2017-08-07T13:23:03.001Z,53.27
2017-08-07T13:25:30.569Z,53.22
2017-08-07T13:27:58.100Z,53.31
2017-08-07T13:30:25.661Z,53.36
2017-08-07T13:32:53.190Z,53.28
2017-08-07T13:35:20.744Z,53.25
2017-08-07T13:37:48.265Z,53.30
2017-08-07T13:40:15.822Z,53.38
2017-08-07T13:42:43.336Z,53.23
2017-08-07T13:45:10.901Z,53.30
2017-08-07T13:47:38.419Z,53.28
2017-08-07T13:50:05.962Z,53.19
2017-08-07T13:52:33.477Z,53.27
2017-08-07T13:55:01.023Z,53.23
2017-08-07T13:57:28.540Z,53.18
2017-08-07T13:59:56.086Z,53.17
2017-08-07T14:02:23.599Z,53.16
2017-08-07T14:04:51.171Z,53.06
2017-08-07T14:07:18.688Z,53.24
2017-08-07T14:09:46.209Z,53.18
2017-08-07T14:12:13.754Z,53.15
2017-08-07T14:14:41.279Z,53.10
2017-08-07T14:17:08.829Z,53.11
2017-08-07T14:19:36.359Z,53.12
2017-08-07T14:22:03.927Z,53.14
2017-08-07T14:24:31.452Z,53.08
2017-08-07T14:26:59.005Z,53.13
2017-08-07T14:29:26.539Z,53.15
2017-08-07T14:31:54.090Z,53.10
2017-08-07T14:34:21.614Z,53.17
2017-08-07T14:36:49.173Z,53.13
2017-08-07T14:39:16.690Z,53.14
2017-08-07T14:41:44.241Z,53.16
2017-08-07T14:44:11.757Z,53.12
2017-08-07T14:46:39.278Z,53.20
2017-08-07T14:49:06.831Z,53.17
2017-08-07T14:51:34.357Z,53.16
2017-08-07T14:54:01.898Z,53.16
2017-08-07T14:56:29.421Z,53.20
2017-08-07T14:58:56.977Z,53.17
2017-08-07T15:01:24.490Z,53.17
2017-08-07T15:03:52.033Z,53.14
2017-08-07T15:06:19.565Z,53.19
2017-08-07T15:08:47.142Z,53.21
2017-08-07T15:11:14.662Z,53.21
2017-08-07T15:13:42.214Z,53.16
2017-08-07T15:16:09.721Z,53.16
2017-08-07T15:18:37.272Z,53.14
2017-08-07T15:21:04.798Z,53.16
2017-08-07T15:23:32.345Z,53.11
2017-08-07T15:25:59.865Z,53.17
2017-08-07T15:28:27.429Z,53.16
2017-08-07T15:30:54.956Z,53.15
2017-08-07T15:33:22.471Z,53.16
2017-08-07T15:35:50.017Z,53.17
2017-08-07T15:38:17.536Z,53.15
2017-08-07T15:40:45.082Z,53.14
2017-08-07T15:43:12.602Z,53.10
2017-08-07T15:45:40.171Z,53.13
2017-08-07T15:48:07.694Z,53.14
2017-08-07T15:50:35.237Z,53.18
2017-08-07T15:53:02.757Z,53.19
2017-08-07T15:55:30.308Z,53.18
2017-08-07T15:57:57.830Z,53.17
2017-08-07T16:00:25.385Z,53.15
2017-08-07T16:02:52.900Z,53.16
2017-08-07T16:05:20.450Z,53.17
2017-08-07T16:07:47.977Z,53.19
2017-08-07T16:10:15.526Z,53.19
2017-08-07T16:12:43.040Z,53.19
2017-08-07T16:15:10.587Z,53.25
2017-08-07T16:17:38.102Z,53.23
2017-08-07T16:20:05.741Z,54.23
2017-08-07T16:22:33.275Z,53.58
2017-08-07T16:25:00.799Z,53.82
2017-08-07T16:27:28.354Z,53.57
2017-08-07T16:30:01.701Z,53.48
2017-08-07T16:32:29.256Z,53.48
2017-08-07T16:34:56.783Z,53.36
2017-08-07T16:37:24.344Z,53.35
2017-08-07T16:39:51.865Z,53.31
2017-08-07T16:42:19.418Z,53.30
2017-08-07T16:44:46.934Z,53.33
2017-08-07T16:47:14.486Z,53.29
2017-08-07T16:49:41.998Z,53.29
2017-08-07T16:52:09.547Z,53.35
2017-08-07T16:54:37.058Z,53.34
2017-08-07T16:57:04.614Z,53.40
2017-08-07T16:59:32.142Z,53.33
2017-08-07T17:01:59.664Z,53.54
2017-08-07T17:04:27.214Z,53.54
2017-08-07T17:06:54.730Z,53.39
2017-08-07T17:09:22.284Z,53.56
2017-08-07T17:11:49.815Z,53.54
2017-08-07T17:14:17.366Z,53.57
2017-08-07T17:16:44.889Z,53.66
2017-08-07T17:19:12.441Z,53.79
2017-08-07T17:21:39.956Z,53.72
2017-08-07T17:24:07.514Z,53.66
2017-08-07T17:26:35.038Z,53.75
2017-08-07T17:29:02.595Z,53.70
2017-08-07T17:31:30.113Z,53.68
2017-08-07T17:33:57.674Z,53.78
2017-08-07T17:36:25.195Z,53.75
2017-08-07T17:38:52.734Z,53.74
2017-08-07T17:41:20.254Z,53.68
2017-08-07T17:43:47.800Z,53.63
2017-08-07T17:46:15.330Z,53.72
2017-08-07T17:48:42.861Z,53.65
2017-08-07T17:51:10.405Z,53.63
2017-08-07T17:53:37.921Z,53.68
2017-08-07T17:56:05.464Z,53.65
2017-08-07T17:58:32.983Z,53.51
2017-08-07T18:01:00.545Z,53.57
2017-08-07T18:03:28.070Z,53.54
2017-08-07T18:05:55.585Z,53.56
2017-08-07T18:08:23.138Z,53.60
2017-08-07T18:10:50.654Z,53.67
2017-08-07T18:13:18.217Z,53.59
2017-08-07T18:15:45.729Z,53.59
2017-08-07T18:18:13.246Z,53.98
2017-08-07T18:20:40.794Z,53.92
2017-08-07T18:23:08.311Z,53.82
2017-08-07T18:25:35.866Z,53.77
2017-08-07T18:28:03.395Z,53.73
2017-08-07T18:30:30.957Z,53.74
2017-08-07T18:32:58.487Z,53.75
2017-08-07T18:35:26.037Z,53.69
2017-08-07T18:37:53.593Z,53.83
2017-08-07T18:40:21.142Z,53.76
2017-08-07T18:42:48.677Z,53.70
2017-08-07T18:45:16.234Z,53.75
2017-08-07T18:47:43.763Z,53.75
2017-08-07T18:50:11.344Z,53.73
2017-08-07T18:52:38.866Z,53.75
2017-08-07T18:55:06.383Z,53.73
2017-08-07T18:57:33.932Z,53.68
2017-08-07T19:00:01.454Z,53.58
2017-08-07T19:02:29.019Z,53.43
2017-08-07T19:04:56.542Z,53.56
2017-08-07T19:07:24.092Z,53.68
2017-08-07T19:09:51.609Z,53.24
2017-08-07T19:12:19.157Z,53.62
2017-08-07T19:14:46.685Z,53.80
2017-08-07T19:17:14.246Z,53.82
2017-08-07T19:19:41.768Z,53.18
2017-08-07T19:22:09.322Z,53.65
2017-08-07T19:24:36.849Z,53.70
2017-08-07T19:27:04.412Z,53.70
2017-08-07T19:29:31.950Z,53.67
2017-08-07T19:31:59.504Z,53.54
2017-08-07T19:34:27.120Z,54.71
2017-08-07T19:36:55.961Z,54.41
2017-08-07T19:39:25.270Z,54.50
2017-08-07T19:41:53.205Z,54.60
2017-08-07T19:44:21.173Z,54.64
2017-08-07T19:46:49.352Z,54.74
2017-08-07T19:49:17.326Z,54.56
2017-08-07T19:51:46.119Z,54.79
2017-08-07T19:54:13.773Z,54.57
2017-08-07T19:56:41.740Z,54.70
2017-08-07T19:59:10.132Z,54.84
2017-08-07T20:01:38.105Z,54.79
2017-08-07T20:04:06.162Z,54.89
2017-08-07T20:06:33.843Z,54.41
2017-08-07T20:09:01.846Z,54.37
2017-08-07T20:11:29.824Z,54.36
2017-08-07T20:13:57.683Z,54.23
2017-08-07T20:16:25.494Z,54.42
2017-08-07T20:18:53.161Z,54.24
2017-08-07T20:21:21.293Z,54.21
2017-08-07T20:23:49.746Z,54.09
2017-08-07T20:26:17.747Z,54.10
2017-08-07T20:28:45.691Z,53.94
2017-08-07T20:31:13.611Z,53.97
2017-08-07T20:33:41.432Z,54.05
2017-08-07T20:36:09.665Z,54.00
2017-08-07T20:38:37.774Z,53.69
2017-08-07T20:41:05.908Z,53.68
2017-08-07T20:43:33.567Z,53.68
2017-08-07T20:46:01.640Z,53.86
2017-08-07T20:48:29.507Z,53.74
2017-08-07T20:50:57.383Z,53.78
2017-08-07T20:53:25.265Z,53.79
2017-08-07T20:55:53.822Z,53.88
2017-08-07T20:58:21.784Z,53.54
2017-08-07T21:00:49.775Z,53.40
2017-08-07T21:03:17.530Z,53.34
2017-08-07T21:05:45.392Z,53.22
2017-08-07T21:08:14.854Z,53.28
2017-08-07T21:10:43.729Z,53.27
2017-08-07T21:13:11.555Z,53.09
2017-08-07T21:15:39.319Z,53.03
2017-08-07T21:18:07.117Z,53.06
2017-08-07T21:20:34.852Z,53.06
2017-08-07T21:23:02.617Z,53.09
2017-08-07T21:25:30.275Z,53.21
2017-08-07T21:27:58.962Z,53.15
2017-08-07T21:30:26.828Z,53.18
2017-08-07T21:32:54.454Z,53.24
2017-08-07T21:35:22.153Z,53.11
2017-08-07T21:37:49.727Z,53.14
2017-08-07T21:40:17.273Z,53.02
2017-08-07T21:42:44.822Z,53.03
2017-08-07T21:45:12.353Z,53.13
2017-08-07T21:47:39.953Z,52.85
2017-08-07T21:50:07.478Z,52.89
2017-08-07T21:52:35.030Z,52.80
2017-08-07T21:55:02.558Z,53.05
2017-08-07T21:57:30.117Z,53.12
2017-08-07T21:59:57.634Z,53.01
2017-08-07T22:02:25.160Z,53.06
2017-08-07T22:04:52.709Z,53.05
2017-08-07T22:07:20.224Z,52.91
2017-08-07T22:09:47.777Z,52.95
2017-08-07T22:12:15.353Z,52.98
2017-08-07T22:14:42.903Z,52.90
2017-08-07T22:17:10.417Z,52.79
2017-08-07T22:19:37.975Z,52.80
2017-08-07T22:22:05.501Z,52.90
2017-08-07T22:24:33.053Z,52.65
2017-08-07T22:27:00.578Z,52.71
2017-08-07T22:29:28.150Z,52.61
2017-08-07T22:31:55.679Z,52.83
2017-08-07T22:34:23.205Z,52.68
2017-08-07T22:36:50.843Z,52.66
2017-08-07T22:39:18.364Z,52.74
2017-08-07T22:41:45.960Z,52.63
2017-08-07T22:44:13.475Z,52.71
2017-08-07T22:46:41.080Z,52.53
2017-08-07T22:49:08.609Z,52.40
2017-08-07T22:51:36.199Z,52.45
2017-08-07T22:54:03.710Z,52.51
2017-08-07T22:56:31.262Z,52.75
2017-08-07T22:58:58.805Z,52.70
2017-08-07T23:01:26.333Z,52.62
2017-08-07T23:03:53.894Z,52.67
2017-08-07T23:06:21.413Z,52.44
2017-08-07T23:08:48.963Z,52.70
2017-08-07T23:11:16.498Z,52.38
2017-08-07T23:13:44.062Z,52.42
2017-08-07T23:16:11.619Z,52.52
2017-08-07T23:18:39.184Z,52.68
2017-08-07T23:21:06.739Z,52.78
2017-08-07T23:23:34.295Z,52.89
2017-08-07T23:26:01.818Z,53.00
2017-08-07T23:28:29.389Z,52.88
2017-08-07T23:30:56.907Z,52.89
2017-08-07T23:33:24.442Z,52.81
2017-08-07T23:35:51.997Z,52.63
2017-08-07T23:38:19.530Z,52.74
2017-08-07T23:40:47.087Z,52.56
2017-08-07T23:43:14.674Z,52.67
2017-08-07T23:45:42.235Z,52.64
2017-08-07T23:48:09.753Z,52.71
2017-08-07T23:50:37.297Z,52.58
2017-08-07T23:53:04.812Z,52.51
2017-08-07T23:55:32.382Z,52.45
2017-08-07T23:57:59.994Z,52.35
